sensor_id;sensor_type;location;lat;lon;timestamp;pressure;altitude;pressure_sealevel;temperature;humidity
46682;BME280;34101;53.430;-2.224;2023-05-22T00:00:29;101911.03;;;15.28;50.03
46682;BME280;34101;53.430;-2.224;2023-05-22T00:02:57;101906.25;;;15.18;50.51
46682;BME280;34101;53.430;-2.224;2023-05-22T00:05:29;101903.46;;;15.12;50.51
46682;BME280;34101;53.430;-2.224;2023-05-22T00:07:56;101899.56;;;15.10;50.49
46682;BME280;34101;53.430;-2.224;2023-05-22T00:10:29;101899.65;;;15.05;50.71
46682;BME280;34101;53.430;-2.224;2023-05-22T00:12:57;101895.58;;;14.97;50.97
46682;BME280;34101;53.430;-2.224;2023-05-22T00:15:24;101892.36;;;14.94;50.76
46682;BME280;34101;53.430;-2.224;2023-05-22T00:17:51;101891.94;;;14.86;50.97
46682;BME280;34101;53.430;-2.224;2023-05-22T00:20:19;101892.21;;;14.84;51.05
46682;BME280;34101;53.430;-2.224;2023-05-22T00:22:47;101890.87;;;14.82;51.29
46682;BME280;34101;53.430;-2.224;2023-05-22T00:25:18;101890.91;;;14.77;51.50
46682;BME280;34101;53.430;-2.224;2023-05-22T00:27:46;101893.14;;;14.74;51.62
46682;BME280;34101;53.430;-2.224;2023-05-22T00:30:14;101893.91;;;14.71;51.66
46682;BME280;34101;53.430;-2.224;2023-05-22T00:32:41;101894.66;;;14.69;51.85
46682;BME280;34101;53.430;-2.224;2023-05-22T00:35:09;101892.61;;;14.65;52.16
46682;BME280;34101;53.430;-2.224;2023-05-22T00:37:35;101890.86;;;14.63;52.40
46682;BME280;34101;53.430;-2.224;2023-05-22T00:40:04;101887.71;;;14.57;52.74
46682;BME280;34101;53.430;-2.224;2023-05-22T00:42:32;101888.20;;;14.48;52.84
46682;BME280;34101;53.430;-2.224;2023-05-22T00:45:00;101885.35;;;14.37;53.15
46682;BME280;34101;53.430;-2.224;2023-05-22T00:47:27;101880.42;;;14.32;53.25
46682;BME280;34101;53.430;-2.224;2023-05-22T00:49:55;101877.25;;;14.29;53.34
46682;BME280;34101;53.430;-2.224;2023-05-22T00:52:23;101875.61;;;14.24;53.51
46682;BME280;34101;53.430;-2.224;2023-05-22T00:54:52;101871.40;;;14.23;53.70
46682;BME280;34101;53.430;-2.224;2023-05-22T00:57:20;101870.52;;;14.23;53.69
46682;BME280;34101;53.430;-2.224;2023-05-22T00:59:48;101869.90;;;14.19;54.06
46682;BME280;34101;53.430;-2.224;2023-05-22T01:02:16;101866.57;;;14.17;54.17
46682;BME280;34101;53.430;-2.224;2023-05-22T01:04:45;101866.30;;;14.17;53.93
46682;BME280;34101;53.430;-2.224;2023-05-22T01:07:15;101868.51;;;14.06;54.21
46682;BME280;34101;53.430;-2.224;2023-05-22T01:09:43;101864.66;;;13.99;54.27
46682;BME280;34101;53.430;-2.224;2023-05-22T01:12:32;101863.08;;;14.00;54.07
46682;BME280;34101;53.430;-2.224;2023-05-22T01:15:06;101868.11;;;14.02;54.00
46682;BME280;34101;53.430;-2.224;2023-05-22T01:17:41;101867.61;;;14.02;53.85
46682;BME280;34101;53.430;-2.224;2023-05-22T01:20:17;101866.72;;;14.01;53.90
46682;BME280;34101;53.430;-2.224;2023-05-22T01:24:13;101865.98;;;13.99;53.93
46682;BME280;34101;53.430;-2.224;2023-05-22T01:27:09;101865.96;;;13.95;53.85
46682;BME280;34101;53.430;-2.224;2023-05-22T01:29:47;101866.94;;;13.83;54.11
46682;BME280;34101;53.430;-2.224;2023-05-22T01:32:20;101865.03;;;13.82;54.27
46682;BME280;34101;53.430;-2.224;2023-05-22T01:34:52;101863.51;;;13.81;54.18
46682;BME280;34101;53.430;-2.224;2023-05-22T01:37:20;101859.33;;;13.69;54.58
46682;BME280;34101;53.430;-2.224;2023-05-22T01:39:50;101859.06;;;13.68;54.68
46682;BME280;34101;53.430;-2.224;2023-05-22T01:42:18;101853.93;;;13.60;54.82
46682;BME280;34101;53.430;-2.224;2023-05-22T01:44:47;101851.27;;;13.60;54.93
46682;BME280;34101;53.430;-2.224;2023-05-22T01:47:15;101850.53;;;13.57;54.92
46682;BME280;34101;53.430;-2.224;2023-05-22T01:49:42;101846.30;;;13.49;55.09
46682;BME280;34101;53.430;-2.224;2023-05-22T01:52:14;101841.63;;;13.45;55.22
46682;BME280;34101;53.430;-2.224;2023-05-22T01:54:48;101840.94;;;13.43;55.29
46682;BME280;34101;53.430;-2.224;2023-05-22T01:57:20;101838.27;;;13.37;54.92
46682;BME280;34101;53.430;-2.224;2023-05-22T01:59:54;101839.62;;;13.35;54.90
46682;BME280;34101;53.430;-2.224;2023-05-22T02:02:23;101836.98;;;13.34;55.02
46682;BME280;34101;53.430;-2.224;2023-05-22T02:04:56;101839.25;;;13.28;55.25
46682;BME280;34101;53.430;-2.224;2023-05-22T02:07:25;101841.74;;;13.19;55.31
46682;BME280;34101;53.430;-2.224;2023-05-22T02:09:54;101839.02;;;13.10;55.73
46682;BME280;34101;53.430;-2.224;2023-05-22T02:12:22;101839.18;;;13.06;55.86
46682;BME280;34101;53.430;-2.224;2023-05-22T02:14:56;101838.22;;;13.02;56.02
46682;BME280;34101;53.430;-2.224;2023-05-22T02:17:23;101838.45;;;12.97;56.26
46682;BME280;34101;53.430;-2.224;2023-05-22T02:19:50;101839.93;;;12.94;56.49
46682;BME280;34101;53.430;-2.224;2023-05-22T02:22:18;101836.03;;;12.89;56.70
46682;BME280;34101;53.430;-2.224;2023-05-22T02:24:47;101835.01;;;12.86;56.94
46682;BME280;34101;53.430;-2.224;2023-05-22T02:27:15;101837.78;;;12.84;56.96
46682;BME280;34101;53.430;-2.224;2023-05-22T02:29:43;101838.57;;;12.85;56.91
46682;BME280;34101;53.430;-2.224;2023-05-22T02:32:10;101840.81;;;12.86;56.99
46682;BME280;34101;53.430;-2.224;2023-05-22T02:34:38;101843.06;;;12.84;56.76
46682;BME280;34101;53.430;-2.224;2023-05-22T02:37:05;101845.25;;;12.80;56.64
46682;BME280;34101;53.430;-2.224;2023-05-22T02:39:33;101847.64;;;12.81;56.57
46682;BME280;34101;53.430;-2.224;2023-05-22T02:42:00;101848.71;;;12.80;56.82
46682;BME280;34101;53.430;-2.224;2023-05-22T02:44:28;101847.00;;;12.73;57.01
46682;BME280;34101;53.430;-2.224;2023-05-22T02:46:55;101842.45;;;12.69;57.17
46682;BME280;34101;53.430;-2.224;2023-05-22T02:49:23;101842.42;;;12.69;57.21
46682;BME280;34101;53.430;-2.224;2023-05-22T02:51:50;101842.97;;;12.63;57.50
46682;BME280;34101;53.430;-2.224;2023-05-22T02:54:18;101842.75;;;12.59;57.59
46682;BME280;34101;53.430;-2.224;2023-05-22T02:56:45;101840.01;;;12.58;57.49
46682;BME280;34101;53.430;-2.224;2023-05-22T02:59:13;101839.99;;;12.55;57.66
46682;BME280;34101;53.430;-2.224;2023-05-22T03:01:41;101843.18;;;12.55;57.72
46682;BME280;34101;53.430;-2.224;2023-05-22T03:04:08;101845.27;;;12.56;57.75
46682;BME280;34101;53.430;-2.224;2023-05-22T03:06:36;101844.69;;;12.54;57.87
46682;BME280;34101;53.430;-2.224;2023-05-22T03:09:03;101843.67;;;12.55;57.81
46682;BME280;34101;53.430;-2.224;2023-05-22T03:11:30;101846.46;;;12.47;58.02
46682;BME280;34101;53.430;-2.224;2023-05-22T03:13:58;101847.30;;;12.43;58.00
46682;BME280;34101;53.430;-2.224;2023-05-22T03:16:25;101847.63;;;12.43;57.92
46682;BME280;34101;53.430;-2.224;2023-05-22T03:19:07;101845.26;;;12.43;57.79
46682;BME280;34101;53.430;-2.224;2023-05-22T03:21:34;101846.21;;;12.39;57.89
46682;BME280;34101;53.430;-2.224;2023-05-22T03:24:02;101844.07;;;12.40;57.87
46682;BME280;34101;53.430;-2.224;2023-05-22T03:26:29;101845.39;;;12.38;58.18
46682;BME280;34101;53.430;-2.224;2023-05-22T03:28:57;101846.83;;;12.37;58.05
46682;BME280;34101;53.430;-2.224;2023-05-22T03:31:26;101840.06;;;12.38;57.91
46682;BME280;34101;53.430;-2.224;2023-05-22T03:33:53;101838.76;;;12.33;57.93
46682;BME280;34101;53.430;-2.224;2023-05-22T03:36:21;101839.04;;;12.30;58.20
46682;BME280;34101;53.430;-2.224;2023-05-22T03:38:48;101840.50;;;12.27;58.23
46682;BME280;34101;53.430;-2.224;2023-05-22T03:41:16;101838.83;;;12.25;58.34
46682;BME280;34101;53.430;-2.224;2023-05-22T03:43:45;101840.15;;;12.22;58.40
46682;BME280;34101;53.430;-2.224;2023-05-22T03:46:13;101840.72;;;12.20;58.54
46682;BME280;34101;53.430;-2.224;2023-05-22T03:48:40;101840.22;;;12.19;58.75
46682;BME280;34101;53.430;-2.224;2023-05-22T03:51:08;101841.19;;;12.18;58.75
46682;BME280;34101;53.430;-2.224;2023-05-22T03:53:40;101842.40;;;12.13;58.91
46682;BME280;34101;53.430;-2.224;2023-05-22T03:56:08;101844.53;;;12.08;59.16
46682;BME280;34101;53.430;-2.224;2023-05-22T03:58:35;101841.89;;;12.07;59.28
46682;BME280;34101;53.430;-2.224;2023-05-22T04:01:03;101841.70;;;12.00;59.55
46682;BME280;34101;53.430;-2.224;2023-05-22T04:03:31;101842.15;;;11.99;59.59
46682;BME280;34101;53.430;-2.224;2023-05-22T04:05:58;101840.36;;;11.99;59.63
46682;BME280;34101;53.430;-2.224;2023-05-22T04:08:25;101843.95;;;11.94;59.51
46682;BME280;34101;53.430;-2.224;2023-05-22T04:10:52;101843.59;;;11.90;59.60
46682;BME280;34101;53.430;-2.224;2023-05-22T04:13:20;101847.08;;;11.83;59.88
46682;BME280;34101;53.430;-2.224;2023-05-22T04:15:47;101851.41;;;11.84;60.10
46682;BME280;34101;53.430;-2.224;2023-05-22T04:18:15;101853.48;;;11.87;59.97
46682;BME280;34101;53.430;-2.224;2023-05-22T04:20:42;101856.40;;;11.82;60.19
46682;BME280;34101;53.430;-2.224;2023-05-22T04:23:09;101856.51;;;11.84;60.17
46682;BME280;34101;53.430;-2.224;2023-05-22T04:25:37;101856.01;;;11.86;60.01
46682;BME280;34101;53.430;-2.224;2023-05-22T04:28:04;101856.57;;;11.89;60.00
46682;BME280;34101;53.430;-2.224;2023-05-22T04:30:31;101855.74;;;11.88;60.19
46682;BME280;34101;53.430;-2.224;2023-05-22T04:32:59;101858.46;;;11.81;60.35
46682;BME280;34101;53.430;-2.224;2023-05-22T04:35:26;101858.16;;;11.82;60.53
46682;BME280;34101;53.430;-2.224;2023-05-22T04:37:54;101857.74;;;11.83;60.61
46682;BME280;34101;53.430;-2.224;2023-05-22T04:40:21;101857.47;;;11.83;60.76
46682;BME280;34101;53.430;-2.224;2023-05-22T04:42:49;101858.28;;;11.81;61.03
46682;BME280;34101;53.430;-2.224;2023-05-22T04:45:16;101860.89;;;11.87;60.96
46682;BME280;34101;53.430;-2.224;2023-05-22T04:47:43;101856.18;;;11.93;60.76
46682;BME280;34101;53.430;-2.224;2023-05-22T04:50:11;101862.71;;;11.97;60.84
46682;BME280;34101;53.430;-2.224;2023-05-22T04:52:38;101858.93;;;11.98;60.95
46682;BME280;34101;53.430;-2.224;2023-05-22T04:55:11;101861.05;;;12.02;60.91
46682;BME280;34101;53.430;-2.224;2023-05-22T04:57:39;101857.78;;;12.05;60.88
46682;BME280;34101;53.430;-2.224;2023-05-22T05:00:07;101856.91;;;12.05;60.73
46682;BME280;34101;53.430;-2.224;2023-05-22T05:02:34;101858.12;;;12.04;60.61
46682;BME280;34101;53.430;-2.224;2023-05-22T05:05:01;101858.03;;;12.07;60.59
46682;BME280;34101;53.430;-2.224;2023-05-22T05:07:29;101861.10;;;12.11;60.57
46682;BME280;34101;53.430;-2.224;2023-05-22T05:09:56;101865.47;;;12.00;61.24
46682;BME280;34101;53.430;-2.224;2023-05-22T05:12:24;101870.52;;;12.10;60.60
46682;BME280;34101;53.430;-2.224;2023-05-22T05:14:51;101876.99;;;12.10;60.65
46682;BME280;34101;53.430;-2.224;2023-05-22T05:17:19;101876.69;;;12.22;60.53
46682;BME280;34101;53.430;-2.224;2023-05-22T05:19:46;101880.58;;;12.26;60.52
46682;BME280;34101;53.430;-2.224;2023-05-22T05:22:14;101881.11;;;12.34;60.34
46682;BME280;34101;53.430;-2.224;2023-05-22T05:24:41;101880.43;;;12.45;60.21
46682;BME280;34101;53.430;-2.224;2023-05-22T05:27:09;101881.53;;;12.54;60.05
46682;BME280;34101;53.430;-2.224;2023-05-22T05:29:36;101879.02;;;12.62;59.95
46682;BME280;34101;53.430;-2.224;2023-05-22T05:32:04;101880.41;;;12.71;59.83
46682;BME280;34101;53.430;-2.224;2023-05-22T05:34:31;101876.30;;;12.80;59.94
46682;BME280;34101;53.430;-2.224;2023-05-22T05:36:59;101877.06;;;12.88;59.77
46682;BME280;34101;53.430;-2.224;2023-05-22T05:39:26;101875.34;;;12.94;59.50
46682;BME280;34101;53.430;-2.224;2023-05-22T05:41:54;101873.59;;;13.03;59.23
46682;BME280;34101;53.430;-2.224;2023-05-22T05:44:21;101874.72;;;13.09;59.14
46682;BME280;34101;53.430;-2.224;2023-05-22T05:46:53;101877.90;;;13.15;58.79
46682;BME280;34101;53.430;-2.224;2023-05-22T05:49:21;101883.84;;;13.20;58.57
46682;BME280;34101;53.430;-2.224;2023-05-22T05:51:48;101887.79;;;13.23;58.62
46682;BME280;34101;53.430;-2.224;2023-05-22T05:54:16;101888.61;;;13.27;58.09
46682;BME280;34101;53.430;-2.224;2023-05-22T05:56:43;101888.98;;;13.30;57.77
46682;BME280;34101;53.430;-2.224;2023-05-22T05:59:10;101892.71;;;13.33;57.60
46682;BME280;34101;53.430;-2.224;2023-05-22T06:01:40;101892.31;;;13.40;57.36
46682;BME280;34101;53.430;-2.224;2023-05-22T06:04:07;101889.68;;;13.44;57.00
46682;BME280;34101;53.430;-2.224;2023-05-22T06:06:35;101890.50;;;13.46;56.81
46682;BME280;34101;53.430;-2.224;2023-05-22T06:09:02;101890.46;;;13.52;56.27
46682;BME280;34101;53.430;-2.224;2023-05-22T06:11:30;101889.53;;;13.60;56.47
46682;BME280;34101;53.430;-2.224;2023-05-22T06:13:57;101884.03;;;13.69;55.93
46682;BME280;34101;53.430;-2.224;2023-05-22T06:16:25;101884.46;;;13.75;55.42
46682;BME280;34101;53.430;-2.224;2023-05-22T06:18:52;101884.33;;;13.82;55.12
46682;BME280;34101;53.430;-2.224;2023-05-22T06:21:24;101882.33;;;13.89;55.02
46682;BME280;34101;53.430;-2.224;2023-05-22T06:23:57;101881.68;;;13.98;54.86
46682;BME280;34101;53.430;-2.224;2023-05-22T06:26:24;101882.19;;;14.04;54.76
46682;BME280;34101;53.430;-2.224;2023-05-22T06:28:52;101881.90;;;14.08;54.60
46682;BME280;34101;53.430;-2.224;2023-05-22T06:31:21;101879.21;;;14.15;54.45
46682;BME280;34101;53.430;-2.224;2023-05-22T06:33:48;101879.52;;;14.26;54.23
46682;BME280;34101;53.430;-2.224;2023-05-22T06:36:16;101882.12;;;14.32;54.22
46682;BME280;34101;53.430;-2.224;2023-05-22T06:38:43;101886.28;;;14.40;53.68
46682;BME280;34101;53.430;-2.224;2023-05-22T06:41:11;101885.19;;;14.49;53.35
46682;BME280;34101;53.430;-2.224;2023-05-22T06:43:38;101886.63;;;14.58;52.92
46682;BME280;34101;53.430;-2.224;2023-05-22T06:46:11;101892.20;;;14.67;52.70
46682;BME280;34101;53.430;-2.224;2023-05-22T06:48:39;101895.30;;;14.78;52.50
46682;BME280;34101;53.430;-2.224;2023-05-22T06:51:06;101896.53;;;14.86;52.19
46682;BME280;34101;53.430;-2.224;2023-05-22T06:53:33;101896.78;;;14.94;52.22
46682;BME280;34101;53.430;-2.224;2023-05-22T06:56:01;101896.94;;;15.04;51.90
46682;BME280;34101;53.430;-2.224;2023-05-22T06:58:28;101898.25;;;15.14;51.26
46682;BME280;34101;53.430;-2.224;2023-05-22T07:00:56;101900.38;;;15.23;51.09
46682;BME280;34101;53.430;-2.224;2023-05-22T07:03:23;101901.88;;;15.37;51.71
46682;BME280;34101;53.430;-2.224;2023-05-22T07:05:50;101894.88;;;15.49;50.57
46682;BME280;34101;53.430;-2.224;2023-05-22T07:08:18;101893.09;;;15.49;49.81
46682;BME280;34101;53.430;-2.224;2023-05-22T07:10:45;101893.81;;;15.67;49.77
46682;BME280;34101;53.430;-2.224;2023-05-22T07:13:12;101895.02;;;15.79;49.79
46682;BME280;34101;53.430;-2.224;2023-05-22T07:15:39;101898.27;;;15.94;48.41
46682;BME280;34101;53.430;-2.224;2023-05-22T07:18:07;101897.66;;;16.10;48.04
46682;BME280;34101;53.430;-2.224;2023-05-22T07:20:35;101895.42;;;16.25;47.53
46682;BME280;34101;53.430;-2.224;2023-05-22T07:23:03;101895.80;;;16.39;47.06
46682;BME280;34101;53.430;-2.224;2023-05-22T07:25:30;101899.32;;;16.59;47.13
46682;BME280;34101;53.430;-2.224;2023-05-22T07:27:57;101906.27;;;16.71;46.59
46682;BME280;34101;53.430;-2.224;2023-05-22T07:30:25;101909.08;;;16.85;46.82
46682;BME280;34101;53.430;-2.224;2023-05-22T07:32:52;101909.79;;;16.84;45.57
46682;BME280;34101;53.430;-2.224;2023-05-22T07:35:19;101911.02;;;17.14;45.12
46682;BME280;34101;53.430;-2.224;2023-05-22T07:37:47;101910.14;;;17.36;44.86
46682;BME280;34101;53.430;-2.224;2023-05-22T07:40:15;101910.50;;;17.54;44.46
46682;BME280;34101;53.430;-2.224;2023-05-22T07:42:42;101914.73;;;18.26;42.71
46682;BME280;34101;53.430;-2.224;2023-05-22T07:45:10;101914.49;;;19.01;41.23
46682;BME280;34101;53.430;-2.224;2023-05-22T07:47:38;101915.87;;;19.73;39.14
46682;BME280;34101;53.430;-2.224;2023-05-22T07:50:07;101912.67;;;20.48;37.49
46682;BME280;34101;53.430;-2.224;2023-05-22T07:52:34;101909.28;;;21.21;36.35
46682;BME280;34101;53.430;-2.224;2023-05-22T07:55:02;101908.37;;;21.83;34.95
46682;BME280;34101;53.430;-2.224;2023-05-22T07:57:29;101910.03;;;22.45;34.27
46682;BME280;34101;53.430;-2.224;2023-05-22T07:59:57;101910.93;;;22.97;32.82
46682;BME280;34101;53.430;-2.224;2023-05-22T08:02:24;101912.86;;;23.55;31.34
46682;BME280;34101;53.430;-2.224;2023-05-22T08:05:02;101912.50;;;23.53;31.68
46682;BME280;34101;53.430;-2.224;2023-05-22T08:07:29;101911.51;;;23.93;31.54
46682;BME280;34101;53.430;-2.224;2023-05-22T08:09:56;101919.29;;;23.80;31.45
46682;BME280;34101;53.430;-2.224;2023-05-22T08:12:23;101916.13;;;24.00;30.61
46682;BME280;34101;53.430;-2.224;2023-05-22T08:14:51;101913.25;;;24.96;29.03
46682;BME280;34101;53.430;-2.224;2023-05-22T08:17:18;101906.42;;;25.48;27.94
46682;BME280;34101;53.430;-2.224;2023-05-22T08:19:46;101910.44;;;25.89;27.57
46682;BME280;34101;53.430;-2.224;2023-05-22T08:22:14;101914.27;;;25.84;28.19
46682;BME280;34101;53.430;-2.224;2023-05-22T08:24:41;101916.02;;;24.60;29.56
46682;BME280;34101;53.430;-2.224;2023-05-22T08:27:09;101918.72;;;25.02;29.27
46682;BME280;34101;53.430;-2.224;2023-05-22T08:29:36;101919.16;;;25.07;28.56
46682;BME280;34101;53.430;-2.224;2023-05-22T08:32:04;101917.72;;;25.59;28.60
46682;BME280;34101;53.430;-2.224;2023-05-22T08:34:32;101926.31;;;25.24;28.46
46682;BME280;34101;53.430;-2.224;2023-05-22T08:37:00;101927.29;;;24.49;29.35
46682;BME280;34101;53.430;-2.224;2023-05-22T08:39:27;101926.36;;;25.28;29.24
46682;BME280;34101;53.430;-2.224;2023-05-22T08:41:55;101920.98;;;25.90;27.76
46682;BME280;34101;53.430;-2.224;2023-05-22T08:44:23;101918.98;;;26.53;27.14
46682;BME280;34101;53.430;-2.224;2023-05-22T08:46:51;101918.04;;;27.24;25.90
46682;BME280;34101;53.430;-2.224;2023-05-22T08:49:20;101916.63;;;26.63;26.39
46682;BME280;34101;53.430;-2.224;2023-05-22T08:51:53;101917.74;;;26.89;26.50
46682;BME280;34101;53.430;-2.224;2023-05-22T08:54:21;101923.94;;;27.52;24.06
46682;BME280;34101;53.430;-2.224;2023-05-22T08:56:52;101920.09;;;27.45;24.23
46682;BME280;34101;53.430;-2.224;2023-05-22T08:59:19;101921.32;;;27.89;23.88
46682;BME280;34101;53.430;-2.224;2023-05-22T09:01:48;101920.76;;;27.91;23.31
46682;BME280;34101;53.430;-2.224;2023-05-22T09:04:16;101924.54;;;28.25;21.65
46682;BME280;34101;53.430;-2.224;2023-05-22T09:06:46;101918.04;;;28.43;22.63
46682;BME280;34101;53.430;-2.224;2023-05-22T09:09:13;101919.01;;;28.64;21.85
46682;BME280;34101;53.430;-2.224;2023-05-22T09:11:40;101920.21;;;28.54;22.36
46682;BME280;34101;53.430;-2.224;2023-05-22T09:14:08;101916.79;;;29.00;21.47
46682;BME280;34101;53.430;-2.224;2023-05-22T09:16:43;101912.02;;;29.45;21.41
46682;BME280;34101;53.430;-2.224;2023-05-22T09:19:11;101914.62;;;29.71;21.10
46682;BME280;34101;53.430;-2.224;2023-05-22T09:21:39;101915.69;;;29.17;21.52
46682;BME280;34101;53.430;-2.224;2023-05-22T09:24:07;101917.93;;;29.55;21.01
46682;BME280;34101;53.430;-2.224;2023-05-22T09:26:35;101912.70;;;29.96;20.02
46682;BME280;34101;53.430;-2.224;2023-05-22T09:29:02;101906.45;;;30.15;20.13
46682;BME280;34101;53.430;-2.224;2023-05-22T09:31:30;101902.51;;;30.65;19.84
46682;BME280;34101;53.430;-2.224;2023-05-22T09:33:57;101898.21;;;31.04;19.89
46682;BME280;34101;53.430;-2.224;2023-05-22T09:36:30;101902.30;;;31.31;19.31
46682;BME280;34101;53.430;-2.224;2023-05-22T09:38:59;101901.75;;;31.56;19.19
46682;BME280;34101;53.430;-2.224;2023-05-22T09:41:27;101904.39;;;31.54;19.12
46682;BME280;34101;53.430;-2.224;2023-05-22T09:43:55;101897.75;;;31.40;18.99
46682;BME280;34101;53.430;-2.224;2023-05-22T09:46:22;101903.05;;;31.28;19.18
46682;BME280;34101;53.430;-2.224;2023-05-22T09:48:51;101898.27;;;31.05;19.27
46682;BME280;34101;53.430;-2.224;2023-05-22T09:51:20;101899.67;;;31.28;19.65
46682;BME280;34101;53.430;-2.224;2023-05-22T09:53:48;101896.98;;;31.26;19.74
46682;BME280;34101;53.430;-2.224;2023-05-22T09:56:17;101896.07;;;30.26;21.07
46682;BME280;34101;53.430;-2.224;2023-05-22T09:58:46;101896.04;;;30.72;21.11
46682;BME280;34101;53.430;-2.224;2023-05-22T10:01:18;101894.22;;;31.38;20.70
46682;BME280;34101;53.430;-2.224;2023-05-22T10:03:47;101898.91;;;30.77;21.70
46682;BME280;34101;53.430;-2.224;2023-05-22T10:06:17;101892.17;;;31.01;21.88
46682;BME280;34101;53.430;-2.224;2023-05-22T10:08:51;101896.50;;;28.05;26.27
46682;BME280;34101;53.430;-2.224;2023-05-22T10:11:21;101894.96;;;28.59;25.90
46682;BME280;34101;53.430;-2.224;2023-05-22T10:13:50;101889.89;;;30.06;24.23
46682;BME280;34101;53.430;-2.224;2023-05-22T10:16:18;101891.50;;;29.75;25.04
46682;BME280;34101;53.430;-2.224;2023-05-22T10:18:46;101887.46;;;30.51;24.15
46682;BME280;34101;53.430;-2.224;2023-05-22T10:21:15;101885.28;;;30.04;25.36
46682;BME280;34101;53.430;-2.224;2023-05-22T10:23:43;101885.87;;;29.43;25.97
46682;BME280;34101;53.430;-2.224;2023-05-22T10:26:10;101886.74;;;30.20;25.01
46682;BME280;34101;53.430;-2.224;2023-05-22T10:28:41;101889.03;;;30.31;24.94
46682;BME280;34101;53.430;-2.224;2023-05-22T10:31:21;101893.90;;;28.96;27.78
46682;BME280;34101;53.430;-2.224;2023-05-22T10:33:56;101890.87;;;28.99;28.17
46682;BME280;34101;53.430;-2.224;2023-05-22T10:36:36;101891.04;;;28.96;28.00
46682;BME280;34101;53.430;-2.224;2023-05-22T10:39:22;101884.37;;;29.54;27.52
46682;BME280;34101;53.430;-2.224;2023-05-22T10:41:51;101882.55;;;29.44;27.58
46682;BME280;34101;53.430;-2.224;2023-05-22T10:44:20;101887.70;;;28.89;28.18
46682;BME280;34101;53.430;-2.224;2023-05-22T10:46:48;101887.19;;;28.96;28.13
46682;BME280;34101;53.430;-2.224;2023-05-22T10:49:19;101881.86;;;28.69;29.45
46682;BME280;34101;53.430;-2.224;2023-05-22T10:51:47;101881.84;;;29.56;26.98
46682;BME280;34101;53.430;-2.224;2023-05-22T10:54:15;101884.65;;;29.02;27.84
46682;BME280;34101;53.430;-2.224;2023-05-22T10:56:42;101875.61;;;30.28;25.32
46682;BME280;34101;53.430;-2.224;2023-05-22T10:59:09;101878.72;;;30.02;26.57
46682;BME280;34101;53.430;-2.224;2023-05-22T11:01:37;101878.75;;;29.71;27.25
46682;BME280;34101;53.430;-2.224;2023-05-22T11:04:10;101878.84;;;29.15;27.92
46682;BME280;34101;53.430;-2.224;2023-05-22T11:06:38;101878.81;;;27.89;30.27
46682;BME280;34101;53.430;-2.224;2023-05-22T11:09:40;101877.19;;;27.31;31.84
46682;BME280;34101;53.430;-2.224;2023-05-22T11:12:24;101868.68;;;26.32;33.21
46682;BME280;34101;53.430;-2.224;2023-05-22T11:14:53;101872.87;;;26.80;32.39
46682;BME280;34101;53.430;-2.224;2023-05-22T11:17:22;101873.04;;;27.37;31.63
46682;BME280;34101;53.430;-2.224;2023-05-22T11:19:59;101869.59;;;26.91;32.65
46682;BME280;34101;53.430;-2.224;2023-05-22T11:22:35;101872.27;;;26.56;33.37
46682;BME280;34101;53.430;-2.224;2023-05-22T11:25:06;101874.95;;;27.19;33.24
46682;BME280;34101;53.430;-2.224;2023-05-22T11:27:34;101865.17;;;27.30;32.76
46682;BME280;34101;53.430;-2.224;2023-05-22T11:30:02;101862.84;;;26.97;32.84
46682;BME280;34101;53.430;-2.224;2023-05-22T11:32:30;101861.10;;;26.76;34.19
46682;BME280;34101;53.430;-2.224;2023-05-22T11:34:57;101859.34;;;26.37;35.23
46682;BME280;34101;53.430;-2.224;2023-05-22T11:37:24;101858.18;;;26.52;34.64
46682;BME280;34101;53.430;-2.224;2023-05-22T11:39:55;101859.29;;;25.90;35.90
46682;BME280;34101;53.430;-2.224;2023-05-22T11:42:23;101856.10;;;26.77;34.05
46682;BME280;34101;53.430;-2.224;2023-05-22T11:44:51;101854.64;;;26.69;34.52
46682;BME280;34101;53.430;-2.224;2023-05-22T11:47:18;101849.08;;;26.18;35.16
46682;BME280;34101;53.430;-2.224;2023-05-22T11:49:46;101841.56;;;26.58;33.35
46682;BME280;34101;53.430;-2.224;2023-05-22T11:52:15;101843.05;;;27.05;33.95
46682;BME280;34101;53.430;-2.224;2023-05-22T11:54:44;101845.69;;;27.00;33.73
46682;BME280;34101;53.430;-2.224;2023-05-22T11:57:12;101848.43;;;25.72;35.84
46682;BME280;34101;53.430;-2.224;2023-05-22T11:59:39;101847.21;;;26.47;36.38
46682;BME280;34101;53.430;-2.224;2023-05-22T12:02:07;101843.58;;;27.14;35.64
46682;BME280;34101;53.430;-2.224;2023-05-22T12:04:36;101839.75;;;26.54;36.63
46682;BME280;34101;53.430;-2.224;2023-05-22T12:07:04;101836.17;;;26.74;35.25
46682;BME280;34101;53.430;-2.224;2023-05-22T12:09:32;101834.52;;;26.23;36.14
46682;BME280;34101;53.430;-2.224;2023-05-22T12:11:59;101834.94;;;26.78;35.84
46682;BME280;34101;53.430;-2.224;2023-05-22T12:14:28;101841.92;;;26.49;35.72
46682;BME280;34101;53.430;-2.224;2023-05-22T12:16:57;101843.96;;;26.17;35.50
46682;BME280;34101;53.430;-2.224;2023-05-22T12:19:25;101845.35;;;25.01;37.81
46682;BME280;34101;53.430;-2.224;2023-05-22T12:21:53;101849.14;;;25.22;38.03
46682;BME280;34101;53.430;-2.224;2023-05-22T12:24:20;101846.35;;;25.12;38.27
46682;BME280;34101;53.430;-2.224;2023-05-22T12:26:49;101847.76;;;25.19;38.17
46682;BME280;34101;53.430;-2.224;2023-05-22T12:29:17;101847.07;;;25.07;39.17
46682;BME280;34101;53.430;-2.224;2023-05-22T12:31:44;101849.35;;;25.24;38.97
46682;BME280;34101;53.430;-2.224;2023-05-22T12:34:11;101847.63;;;24.65;39.93
46682;BME280;34101;53.430;-2.224;2023-05-22T12:36:40;101847.75;;;24.56;39.90
46682;BME280;34101;53.430;-2.224;2023-05-22T12:39:08;101845.11;;;24.56;39.51
46682;BME280;34101;53.430;-2.224;2023-05-22T12:41:37;101846.55;;;24.79;39.80
46682;BME280;34101;53.430;-2.224;2023-05-22T12:44:05;101848.69;;;24.81;40.21
46682;BME280;34101;53.430;-2.224;2023-05-22T12:46:33;101845.28;;;24.96;40.52
46682;BME280;34101;53.430;-2.224;2023-05-22T12:49:05;101848.59;;;24.79;40.01